Jacksonville, FL (32216)

10:01 AM EST on February 23, 2017 (GMT -0500)
Glynlea | | Change Station
Active Advisory: Coastal Hazard Statement Active Notice: Coastal Hazard Statement

Elev 10 ft 30.30 °N, 81.59 °W | Updated 17 seconds ago

Partly Cloudy
Partly Cloudy
71.1 °F
Feels Like 72 °F
N
2.0
Wind Variable Wind from NNW

Today
High -- | Low -- °F
--% Chance of Precip.
Yesterday
High -- | Low -- °F
Precip. -- in
Pressure 29.76 in
Visibility 9.0 miles
Clouds Few 5500 ft
Heat Index 72 °F
Dew Point 64 °F
Humidity 79%
Rainfall 0.18 in
Snow Depth Not available.
6:58 AM 6:21 PM
Waning Crescent, 10% visible
METAR KCRG 231453Z 03011G18KT 9SM FEW055 21/17 A2976 RMK AO2 SLP077 T02060172 53011
Pressure 29.76 in
Visibility 9.0 miles
Clouds Few 5500 ft
Heat Index 72 °F
Dew Point 64 °F
Humidity 79%
Rainfall 0.18 in
Snow Depth Not available.
6:58 AM 6:21 PM
Waning Crescent, 10% visible
METAR KCRG 231453Z 03011G18KT 9SM FEW055 21/17 A2976 RMK AO2 SLP077 T02060172 53011

Get Your Daily Forecast Email!

Thanks for signing up!

Be on the lookout for a verification email in your inbox.

You'll start receiving the daily forecast at 8 AM.

×

10-Day Weather Forecast

Almanac

Astronomy

Feb. 23, 2017 Rise Set
Actual Time
Civil Twilight
Nautical Twilight
Astronomical Twilight
Moon
Length of Visible Light
Length of Day
Tomorrow will be .
, % of the Moon is Illuminated

Today's Extremes

State Highs State Lows

Community

WunderPhotos

Upload Photos

1,962,540 photos uploaded!

WunderBlog® & News

Nearby

Air Quality

  Air Quality AQ Index Pollutant
Not available.

Snow Depth

Station Depth Elevation

Earthquake Activity

City Distance Mag. Time & Date
Minimum magnitude displayed is 2.5.

Coastal Water Temperatures

Place Temperature

Stations

Nearby Weather Stations

Station Location Temp. Windchill Dew Point Humidity Wind Precip. Elev Updated Type
                   

Watches & Warnings

Coastal Hazard Statement
Issued: 2:50 AM EST Feb. 23, 2017 – National Weather Service

... High rip current risk in effect through Friday evening...

The National Weather Service in Jacksonville has issued a high
rip current risk, which is in effect through Friday evening.

* Timing... through Friday evening.

Precautionary/preparedness actions...

There is a high risk of rip currents.

Rip currents will be life threatening.

Rip currents are powerful channels of water flowing quickly away
from shore, which occur most often at low spots or breaks in The
Sandbar and in the vicinity of structures such as groins, jetties
and piers. Heed the advice of lifeguards and the beach patrol.
Pay attention to flags and posted signs.

Swim near a lifeguard. If caught in a rip current remain calm.
Don't fight the current. Swim in a direction following the
shoreline. If unable to escape, face the shore and call or wave
for help. If tired, float or tread water until out of the rip
current.